TimeCDT,TemperatureF,Dew PointF,Humidity,Sea Level PressureIn,VisibilityMPH,Wind Direction,Wind SpeedMPH,Gust SpeedMPH,PrecipitationIn,Events,Conditions,WindDirDegrees,DateUTC
12:52 AM,66.9,60.1,79,29.89,10.0,East,6.9,-,N/A,,Clear,90,2014-06-07 05:52:00
1:52 AM,64.9,60.1,84,29.88,10.0,East,5.8,-,N/A,,Clear,100,2014-06-07 06:52:00
2:52 AM,64.9,61.0,87,29.89,10.0,South,3.5,-,N/A,,Partly Cloudy,190,2014-06-07 07:52:00
4:15 AM,63.0,60.1,90,29.93,8.0,NW,3.5,-,N/A,Thunderstorm,Mostly Cloudy,310,2014-06-07 09:15:00
4:23 AM,62.1,60.1,93,29.94,7.0,WNW,9.2,-,0.01,Rain-Thunderstorm,Light Thunderstorms and Rain,290,2014-06-07 09:23:00
4:37 AM,61.0,61.0,100,29.95,1.8,WNW,5.8,-,0.17,Rain-Thunderstorm,Heavy Thunderstorms and Rain,300,2014-06-07 09:37:00
4:44 AM,61.0,61.0,100,29.96,3.0,NW,9.2,-,0.18,Rain-Thunderstorm,Light Thunderstorms and Rain,310,2014-06-07 09:44:00
4:52 AM,61.0,60.1,97,29.94,10.0,NNW,10.4,-,0.18,Rain-Thunderstorm,Light Thunderstorms and Rain,330,2014-06-07 09:52:00
5:12 AM,60.1,59.0,96,29.97,10.0,WNW,17.3,-,0.01,Thunderstorm,Overcast,300,2014-06-07 10:12:00
5:24 AM,59.0,57.9,96,29.96,10.0,NW,18.4,-,0.01,,Overcast,320,2014-06-07 10:24:00
5:52 AM,57.0,55.9,96,29.96,10.0,NNW,17.3,-,0.01,,Scattered Clouds,330,2014-06-07 10:52:00
7:52 AM,55.0,54.0,96,29.96,10.0,North,21.9,31.1,N/A,,Overcast,10,2014-06-07 12:52:00
8:52 AM,57.0,55.9,96,29.97,10.0,NE,17.3,-,N/A,,Overcast,40,2014-06-07 13:52:00
10:52 AM,60.1,57.9,93,29.98,10.0,North,11.5,-,N/A,,Mostly Cloudy,10,2014-06-07 15:52:00
11:52 AM,60.1,57.0,90,29.98,10.0,North,13.8,-,N/A,,Mostly Cloudy,10,2014-06-07 16:52:00
12:14 PM,60.1,57.9,93,29.99,10.0,NNE,15.0,-,N/A,,Mostly Cloudy,20,2014-06-07 17:14:00
12:21 PM,61.0,57.9,90,29.98,10.0,North,12.7,-,N/A,,Mostly Cloudy,10,2014-06-07 17:21:00
12:52 PM,60.1,57.0,90,29.98,10.0,North,13.8,-,N/A,,Overcast,10,2014-06-07 17:52:00
1:52 PM,59.0,57.0,93,29.99,10.0,North,12.7,-,N/A,,Overcast,360,2014-06-07 18:52:00
2:52 PM,59.0,57.0,93,30.00,10.0,North,12.7,-,N/A,,Overcast,360,2014-06-07 19:52:00
3:43 PM,57.0,55.9,96,30.01,10.0,North,15.0,-,0.00,Rain,Light Rain,350,2014-06-07 20:43:00
3:52 PM,57.0,57.0,100,30.01,10.0,North,13.8,-,0.00,,Overcast,350,2014-06-07 20:52:00
4:15 PM,57.9,57.0,97,30.00,10.0,North,15.0,-,0.00,Rain,Light Rain,350,2014-06-07 21:15:00
4:52 PM,59.0,57.0,93,30.02,10.0,North,18.4,-,0.00,,Overcast,350,2014-06-07 21:52:00
5:52 PM,60.1,57.0,90,30.02,10.0,North,13.8,-,N/A,,Overcast,360,2014-06-07 22:52:00
6:44 PM,60.1,55.9,86,30.02,10.0,North,12.7,-,N/A,,Mostly Cloudy,350,2014-06-07 23:44:00
6:52 PM,60.1,57.0,90,30.03,10.0,North,13.8,-,N/A,,Scattered Clouds,360,2014-06-07 23:52:00
6:59 PM,59.0,55.9,90,30.03,10.0,North,16.1,-,N/A,,Mostly Cloudy,360,2014-06-07 23:59:00
7:27 PM,60.1,55.9,86,30.03,10.0,North,15.0,-,N/A,,Overcast,10,2014-06-08 00:27:00
7:52 PM,59.0,55.9,90,30.04,10.0,North,12.7,-,N/A,,Overcast,360,2014-06-08 00:52:00
8:34 PM,59.0,55.9,90,30.03,10.0,North,11.5,-,N/A,,Overcast,360,2014-06-08 01:34:00
8:52 PM,57.9,55.9,93,30.04,10.0,North,12.7,-,N/A,,Overcast,360,2014-06-08 01:52:00
9:52 PM,55.0,54.0,96,30.05,10.0,North,9.2,-,N/A,,Clear,360,2014-06-08 02:52:00
10:52 PM,54.0,54.0,100,30.07,10.0,North,8.1,-,N/A,,Clear,350,2014-06-08 03:52:00
11:52 PM,53.1,53.1,100,30.08,9.0,North,8.1,-,N/A,,Clear,350,2014-06-08 04:52:00